createdAt,value
2022-10-12T08:46:04.127Z,99.60
2022-10-12T08:48:37.934Z,99.70
2022-10-12T08:51:14.793Z,99.80
2022-10-12T08:53:57.336Z,99.80
2022-10-12T08:56:24.704Z,99.30
2022-10-12T08:58:53.247Z,99.20
2022-10-12T09:01:33.509Z,99.30
2022-10-12T09:04:06.636Z,99.20
2022-10-12T09:06:59.757Z,98.80
2022-10-12T09:09:57.605Z,98.80
2022-10-12T09:12:43.471Z,98.00
2022-10-12T09:15:20.123Z,98.10
2022-10-12T09:17:55.172Z,98.10
2022-10-12T09:20:27.492Z,98.00
2022-10-12T09:23:01.600Z,97.20
2022-10-12T09:25:29.130Z,97.20
2022-10-12T09:28:13.271Z,96.70
2022-10-12T09:30:45.929Z,96.70
2022-10-12T09:33:29.899Z,97.30
2022-10-12T09:35:57.828Z,96.80
2022-10-12T09:38:24.704Z,97.20
2022-10-12T09:40:51.610Z,97.10
2022-10-12T09:43:18.758Z,97.40
2022-10-12T09:45:46.512Z,97.50
2022-10-12T09:48:20.470Z,97.50
2022-10-12T09:50:58.688Z,97.40
2022-10-12T09:53:47.136Z,97.40
2022-10-12T09:56:27.085Z,97.50
2022-10-12T09:58:58.897Z,97.30
2022-10-12T10:01:31.962Z,97.60
2022-10-12T10:04:22.760Z,97.40
2022-10-12T10:06:50.801Z,97.50
2022-10-12T10:09:32.625Z,97.20
2022-10-12T10:12:24.048Z,97.60
2022-10-12T10:14:53.678Z,97.40
2022-10-12T10:17:34.346Z,97.50
2022-10-12T10:20:05.222Z,97.10
2022-10-12T10:22:32.606Z,96.00
2022-10-12T10:25:01.150Z,96.00
2022-10-12T10:27:34.453Z,96.50
2022-10-12T10:30:40.768Z,96.40
2022-10-12T10:33:18.452Z,96.30
2022-10-12T10:36:00.308Z,96.10
2022-10-12T10:38:30.370Z,96.00
2022-10-12T10:40:57.621Z,95.70
2022-10-12T10:43:30.190Z,95.90
2022-10-12T10:46:02.532Z,95.30
2022-10-12T10:49:01.782Z,95.70
2022-10-12T10:51:52.359Z,95.40
2022-10-12T10:54:22.342Z,95.30
2022-10-12T10:56:56.965Z,95.60
2022-10-12T10:59:38.622Z,95.80
2022-10-12T11:02:40.180Z,95.60
2022-10-12T11:05:10.969Z,95.70
2022-10-12T11:07:46.455Z,95.80
2022-10-12T11:10:22.613Z,95.60
2022-10-12T11:12:56.675Z,95.40
2022-10-12T11:15:37.606Z,95.70
2022-10-12T11:18:27.399Z,95.30
2022-10-12T11:21:15.500Z,95.80
2022-10-12T11:23:45.477Z,95.80
2022-10-12T11:26:26.969Z,95.80
2022-10-12T11:28:57.028Z,95.70
2022-10-12T11:31:38.156Z,95.60
2022-10-12T11:34:13.336Z,95.40
2022-10-12T11:37:01.076Z,95.90
2022-10-12T11:39:36.916Z,95.20
2022-10-12T11:42:21.340Z,95.10
2022-10-12T11:44:49.980Z,94.80
2022-10-12T11:47:27.534Z,94.90
2022-10-12T11:50:02.449Z,94.50
2022-10-12T11:52:40.953Z,93.50
2022-10-12T11:55:35.030Z,94.70
2022-10-12T11:58:13.892Z,92.50
2022-10-12T12:00:53.458Z,93.00
2022-10-12T12:03:55.384Z,92.70
2022-10-12T12:06:31.384Z,92.70
2022-10-12T12:08:58.399Z,92.60
2022-10-12T12:11:31.484Z,93.10
2022-10-12T12:14:26.588Z,92.80
2022-10-12T12:17:22.660Z,93.00
2022-10-12T12:19:57.403Z,93.00
2022-10-12T12:22:26.934Z,92.50
2022-10-12T12:24:57.423Z,92.70
2022-10-12T12:27:32.315Z,93.10
2022-10-12T12:30:03.877Z,93.10
2022-10-12T12:32:49.239Z,93.50
2022-10-12T12:35:30.873Z,93.30
2022-10-12T12:38:06.589Z,93.40
2022-10-12T12:40:34.094Z,93.20
2022-10-12T12:43:21.320Z,91.90
2022-10-12T12:46:13.289Z,92.00
2022-10-12T12:48:43.232Z,91.70
2022-10-12T12:51:20.758Z,91.90
2022-10-12T12:53:56.932Z,91.50
2022-10-12T12:56:51.019Z,91.80
2022-10-12T12:59:20.555Z,92.40
2022-10-12T13:02:12.078Z,92.30
2022-10-12T13:04:49.386Z,91.70
2022-10-12T13:07:24.966Z,92.00
2022-10-12T13:10:14.314Z,90.20
2022-10-12T13:13:02.146Z,91.30
2022-10-12T13:15:34.768Z,90.30
2022-10-12T13:18:45.946Z,91.10
2022-10-12T13:21:17.901Z,90.50
2022-10-12T13:23:48.428Z,90.90
2022-10-12T13:26:22.095Z,90.60
2022-10-12T13:28:50.532Z,90.70
2022-10-12T13:31:32.248Z,91.00
2022-10-12T13:34:17.480Z,91.40
2022-10-12T13:36:50.834Z,91.90
2022-10-12T13:39:20.342Z,91.80
2022-10-12T13:41:49.907Z,91.20
2022-10-12T13:44:35.759Z,91.90
2022-10-12T13:47:20.847Z,91.20
2022-10-12T13:49:47.764Z,91.50
2022-10-12T13:52:14.892Z,91.60
2022-10-12T13:54:44.203Z,91.70
2022-10-12T13:57:42.103Z,91.50
2022-10-12T14:00:19.987Z,92.20
2022-10-12T14:02:58.593Z,92.10
2022-10-12T14:05:27.663Z,91.50
2022-10-12T14:08:13.045Z,91.70
2022-10-12T14:10:41.513Z,91.30
2022-10-12T14:13:13.073Z,91.80
2022-10-12T14:15:41.560Z,91.50
2022-10-12T14:18:53.598Z,90.70
2022-10-12T14:21:27.943Z,91.10
2022-10-12T14:23:55.784Z,91.60
2022-10-12T14:26:24.193Z,90.70
2022-10-12T14:28:51.682Z,91.20
2022-10-12T14:31:18.837Z,91.60
2022-10-12T14:33:45.694Z,91.50
2022-10-12T14:36:21.438Z,91.50
2022-10-12T14:38:50.465Z,91.40
2022-10-12T14:41:50.962Z,91.50
2022-10-12T14:44:20.676Z,91.90
2022-10-12T14:47:02.711Z,91.80
2022-10-12T14:49:41.608Z,91.80
2022-10-12T14:52:15.362Z,92.10
2022-10-12T14:54:42.354Z,91.90
2022-10-12T14:57:15.433Z,92.10
2022-10-12T14:59:42.739Z,92.10
2022-10-12T15:02:18.836Z,92.10
2022-10-12T15:04:46.831Z,92.30
2022-10-12T15:07:22.417Z,92.10
2022-10-12T15:09:50.347Z,91.90
2022-10-12T15:12:20.033Z,91.70
2022-10-12T15:14:47.698Z,91.60
2022-10-12T15:17:16.424Z,91.70
2022-10-12T15:19:44.933Z,91.50
2022-10-12T15:22:17.886Z,91.60
2022-10-12T15:24:45.429Z,91.80
2022-10-12T15:27:12.803Z,92.30
2022-10-12T15:29:40.119Z,92.20
2022-10-12T15:32:09.811Z,92.20
2022-10-12T15:34:36.817Z,92.10
2022-10-12T15:37:08.717Z,92.20
2022-10-12T15:39:36.375Z,92.10
2022-10-12T15:42:03.576Z,92.40
2022-10-12T15:44:30.554Z,92.60
2022-10-12T15:46:57.486Z,92.90
2022-10-12T15:49:24.476Z,92.60
2022-10-12T15:51:55.160Z,92.80
2022-10-12T15:54:22.512Z,92.80
2022-10-12T15:56:49.387Z,92.80
2022-10-12T15:59:16.347Z,93.00
2022-10-12T16:01:43.314Z,92.90
2022-10-12T16:04:14.970Z,93.10
2022-10-12T16:06:42.081Z,93.10
2022-10-12T16:09:09.195Z,93.10
2022-10-12T16:11:36.161Z,93.10
2022-10-12T16:14:02.987Z,93.20
2022-10-12T16:16:31.932Z,93.40
2022-10-12T16:18:58.894Z,93.50
2022-10-12T16:21:26.000Z,93.60
2022-10-12T16:23:52.886Z,93.60
2022-10-12T16:26:19.939Z,93.90
2022-10-12T16:28:47.030Z,93.60
2022-10-12T16:31:17.699Z,93.80
2022-10-12T16:33:45.118Z,93.90
2022-10-12T16:36:15.178Z,93.90
2022-10-12T16:38:43.154Z,94.00
2022-10-12T16:41:11.863Z,94.40
2022-10-12T16:43:38.979Z,94.60
2022-10-12T16:46:06.705Z,94.90
2022-10-12T16:48:34.088Z,94.70
2022-10-12T16:51:01.096Z,95.10
2022-10-12T16:53:28.003Z,95.00
2022-10-12T16:55:55.034Z,94.90
2022-10-12T16:58:21.878Z,94.90
2022-10-12T17:00:48.812Z,95.00
2022-10-12T17:03:15.821Z,95.20
2022-10-12T17:05:42.873Z,95.20
2022-10-12T17:08:15.013Z,95.40
2022-10-12T17:10:43.965Z,95.60
2022-10-12T17:13:13.592Z,95.50
2022-10-12T17:15:42.140Z,95.60
2022-10-12T17:18:09.467Z,95.50
2022-10-12T17:20:37.044Z,95.70
2022-10-12T17:23:04.247Z,95.80
2022-10-12T17:25:31.309Z,96.00
2022-10-12T17:27:58.140Z,95.90
2022-10-12T17:30:25.010Z,95.90
2022-10-12T17:32:51.800Z,96.20
2022-10-12T17:35:18.848Z,95.90
2022-10-12T17:37:45.737Z,96.00
2022-10-12T17:40:12.690Z,96.30
2022-10-12T17:42:39.637Z,96.00
2022-10-12T17:45:07.080Z,96.20
2022-10-12T17:47:33.919Z,96.20
2022-10-12T17:50:01.056Z,96.20
2022-10-12T17:52:27.936Z,96.30
2022-10-12T17:54:54.888Z,96.20
2022-10-12T17:57:21.882Z,96.30
2022-10-12T17:59:48.827Z,96.30
2022-10-12T18:02:15.675Z,96.30
2022-10-12T18:04:42.717Z,96.30
2022-10-12T18:07:09.525Z,96.50
2022-10-12T18:09:36.441Z,96.50
2022-10-12T18:12:03.460Z,96.50
2022-10-12T18:14:30.338Z,96.50
2022-10-12T18:16:58.753Z,96.50
2022-10-12T18:19:25.717Z,96.60
2022-10-12T18:21:52.597Z,96.70
2022-10-12T18:24:23.198Z,96.70
2022-10-12T18:26:50.308Z,96.60
2022-10-12T18:29:19.550Z,96.70
2022-10-12T18:31:46.701Z,96.90
2022-10-12T18:34:13.526Z,96.70
2022-10-12T18:36:42.722Z,96.70
2022-10-12T18:39:09.865Z,96.80
2022-10-12T18:41:36.792Z,97.00
2022-10-12T18:44:04.025Z,96.90
2022-10-12T18:46:33.478Z,97.20
2022-10-12T18:49:04.975Z,97.10
2022-10-12T18:51:34.309Z,97.00
2022-10-12T18:54:02.122Z,97.20
2022-10-12T18:56:30.341Z,97.10
2022-10-12T18:58:57.947Z,97.30
2022-10-12T19:01:26.440Z,97.30
2022-10-12T19:03:58.090Z,97.20
2022-10-12T19:06:27.999Z,97.40
2022-10-12T19:08:55.978Z,97.50
2022-10-12T19:11:24.666Z,97.70
2022-10-12T19:13:59.615Z,97.70
2022-10-12T19:16:27.329Z,97.80
2022-10-12T19:18:59.440Z,97.90
2022-10-12T19:21:27.390Z,98.10
2022-10-12T19:23:54.661Z,98.50
2022-10-12T19:26:24.422Z,98.60
2022-10-12T19:28:53.160Z,98.50
2022-10-12T19:31:35.889Z,98.50
2022-10-12T19:34:09.737Z,98.90
2022-10-12T19:36:37.705Z,98.90
2022-10-12T19:39:08.455Z,98.90
2022-10-12T19:41:37.350Z,98.80
2022-10-12T19:44:04.931Z,98.90
2022-10-12T19:46:32.320Z,99.00
2022-10-12T19:49:00.482Z,99.30
2022-10-12T19:51:29.539Z,99.10
2022-10-12T19:53:58.806Z,99.40
2022-10-12T19:56:26.783Z,99.40
2022-10-12T19:58:56.340Z,99.50
2022-10-12T20:01:32.285Z,99.90
2022-10-12T20:03:59.429Z,99.80
2022-10-12T20:06:28.641Z,99.70
2022-10-12T20:08:57.887Z,99.80
2022-10-12T20:11:25.171Z,99.90
2022-10-12T20:13:52.841Z,99.90
2022-10-12T20:16:20.772Z,99.90
2022-10-12T20:18:48.455Z,99.90
2022-10-12T20:21:19.144Z,99.90
2022-10-12T20:23:46.368Z,99.90
2022-10-12T20:26:17.157Z,99.90
2022-10-12T20:28:44.368Z,99.90
2022-10-12T20:31:11.896Z,99.90
2022-10-12T20:33:40.196Z,99.90
2022-10-12T20:36:11.489Z,99.90
2022-10-12T20:38:38.699Z,99.90
2022-10-12T20:41:08.375Z,99.90
2022-10-12T20:43:36.357Z,99.90
2022-10-12T20:46:08.477Z,99.90
2022-10-12T20:48:35.558Z,99.90
2022-10-12T20:51:06.416Z,99.90
2022-10-12T20:53:34.281Z,99.90
2022-10-12T20:56:07.402Z,99.90
2022-10-12T20:58:34.681Z,99.90
2022-10-12T21:01:10.792Z,99.90
2022-10-12T21:03:38.425Z,99.90
2022-10-12T21:06:08.378Z,99.90
2022-10-12T21:08:35.860Z,99.90
2022-10-12T21:11:03.915Z,99.90
2022-10-12T21:13:32.841Z,99.90
2022-10-12T21:16:00.025Z,99.90
2022-10-12T21:18:27.273Z,99.90
2022-10-12T21:20:59.046Z,99.90
2022-10-12T21:23:26.045Z,99.90
2022-10-12T21:25:53.608Z,99.90
2022-10-12T21:28:21.903Z,99.90
2022-10-12T21:30:49.589Z,99.90
2022-10-12T21:33:17.952Z,99.90
2022-10-12T21:35:44.864Z,99.90
2022-10-12T21:38:11.913Z,99.90
2022-10-12T21:40:39.188Z,99.90
2022-10-12T21:43:06.084Z,99.90
2022-10-12T21:45:33.104Z,99.90
2022-10-12T21:48:00.130Z,99.90
2022-10-12T21:50:27.466Z,99.90
2022-10-12T21:53:00.031Z,99.90
2022-10-12T21:55:27.066Z,99.90
2022-10-12T21:57:53.888Z,99.90
2022-10-12T22:00:20.921Z,99.90
2022-10-12T22:02:49.279Z,99.90
2022-10-12T22:05:16.366Z,99.90
2022-10-12T22:07:43.793Z,99.90
2022-10-12T22:10:12.076Z,99.90
2022-10-12T22:12:39.506Z,99.90
2022-10-12T22:15:08.230Z,99.90
2022-10-12T22:17:35.652Z,99.90
2022-10-12T22:20:02.856Z,99.90
2022-10-12T22:22:29.799Z,99.90
2022-10-12T22:24:56.630Z,99.90
2022-10-12T22:27:26.219Z,99.90
2022-10-12T22:29:53.096Z,99.90
2022-10-12T22:32:20.720Z,99.90
2022-10-12T22:34:47.897Z,99.90
2022-10-12T22:37:14.659Z,99.90
2022-10-12T22:39:41.531Z,99.90
2022-10-12T22:42:08.426Z,99.90
2022-10-12T22:44:35.246Z,99.90
2022-10-12T22:47:02.099Z,99.90
2022-10-12T22:49:29.057Z,99.90
2022-10-12T22:51:56.028Z,99.90
2022-10-12T22:54:22.853Z,99.90
2022-10-12T22:56:51.318Z,99.90
2022-10-12T22:59:18.328Z,99.90
2022-10-12T23:01:45.291Z,99.90
2022-10-12T23:04:12.232Z,99.90
2022-10-12T23:06:39.060Z,99.90
2022-10-12T23:09:05.983Z,99.90
2022-10-12T23:11:32.871Z,99.90
2022-10-12T23:13:59.954Z,99.90
2022-10-12T23:16:31.639Z,99.90
2022-10-12T23:19:04.826Z,99.90
2022-10-12T23:21:33.277Z,99.90
2022-10-12T23:24:01.279Z,99.90
2022-10-12T23:26:29.362Z,99.90
2022-10-12T23:28:56.736Z,99.90
2022-10-12T23:31:27.538Z,99.90
2022-10-12T23:34:06.345Z,99.90
2022-10-12T23:36:33.724Z,99.90
2022-10-12T23:39:01.277Z,99.90
2022-10-12T23:41:28.451Z,99.90
2022-10-12T23:43:55.334Z,99.90
2022-10-12T23:46:22.234Z,99.90
2022-10-12T23:48:49.336Z,99.90
2022-10-12T23:51:16.447Z,99.90
